sensor_id;sensor_type;location;lat;lon;timestamp;pressure;altitude;pressure_sealevel;temperature;humidity
31761;BME280;18335;51.486;7.562;2023-12-04T00:01:44;100074.53;;;3.59;100.00
31761;BME280;18335;51.486;7.562;2023-12-04T00:04:12;100069.78;;;3.52;100.00
31761;BME280;18335;51.486;7.562;2023-12-04T00:06:39;100064.97;;;3.66;100.00
31761;BME280;18335;51.486;7.562;2023-12-04T00:09:07;100060.97;;;3.39;100.00
31761;BME280;18335;51.486;7.562;2023-12-04T00:11:33;100061.44;;;3.55;100.00
31761;BME280;18335;51.486;7.562;2023-12-04T00:14:00;100054.09;;;3.34;100.00
31761;BME280;18335;51.486;7.562;2023-12-04T00:16:27;100049.06;;;3.41;100.00
31761;BME280;18335;51.486;7.562;2023-12-04T00:18:55;100053.00;;;3.26;100.00
31761;BME280;18335;51.486;7.562;2023-12-04T00:21:22;100043.81;;;3.40;100.00
31761;BME280;18335;51.486;7.562;2023-12-04T00:23:48;100043.09;;;3.26;100.00
31761;BME280;18335;51.486;7.562;2023-12-04T00:26:15;100037.19;;;3.44;100.00
31761;BME280;18335;51.486;7.562;2023-12-04T00:28:42;100028.16;;;3.22;100.00
31761;BME280;18335;51.486;7.562;2023-12-04T00:31:09;100025.81;;;3.40;100.00
31761;BME280;18335;51.486;7.562;2023-12-04T00:33:37;100018.78;;;3.49;100.00
31761;BME280;18335;51.486;7.562;2023-12-04T00:36:05;100028.41;;;3.19;100.00
31761;BME280;18335;51.486;7.562;2023-12-04T00:38:32;100017.81;;;3.39;100.00
31761;BME280;18335;51.486;7.562;2023-12-04T00:40:59;100026.06;;;3.37;100.00
31761;BME280;18335;51.486;7.562;2023-12-04T00:43:26;100024.94;;;3.40;100.00
31761;BME280;18335;51.486;7.562;2023-12-04T00:45:52;100021.06;;;3.21;100.00
31761;BME280;18335;51.486;7.562;2023-12-04T00:48:19;100018.19;;;3.45;100.00
31761;BME280;18335;51.486;7.562;2023-12-04T00:50:46;100013.91;;;3.43;100.00
31761;BME280;18335;51.486;7.562;2023-12-04T00:53:14;100020.34;;;3.62;100.00
31761;BME280;18335;51.486;7.562;2023-12-04T00:55:41;100017.78;;;3.50;100.00
31761;BME280;18335;51.486;7.562;2023-12-04T00:58:07;100017.38;;;3.65;100.00
31761;BME280;18335;51.486;7.562;2023-12-04T01:00:34;100021.66;;;3.79;100.00
31761;BME280;18335;51.486;7.562;2023-12-04T01:03:01;100016.56;;;3.97;100.00
31761;BME280;18335;51.486;7.562;2023-12-04T01:05:27;100010.25;;;3.75;100.00
31761;BME280;18335;51.486;7.562;2023-12-04T01:07:54;100004.25;;;3.72;100.00
31761;BME280;18335;51.486;7.562;2023-12-04T01:10:22;99996.00;;;3.84;100.00
31761;BME280;18335;51.486;7.562;2023-12-04T01:12:49;99995.19;;;3.73;100.00
31761;BME280;18335;51.486;7.562;2023-12-04T01:15:16;99996.38;;;3.80;100.00
31761;BME280;18335;51.486;7.562;2023-12-04T01:17:43;100000.84;;;3.70;100.00
31761;BME280;18335;51.486;7.562;2023-12-04T01:20:10;99992.19;;;3.55;100.00
31761;BME280;18335;51.486;7.562;2023-12-04T01:22:37;99990.00;;;3.81;100.00
31761;BME280;18335;51.486;7.562;2023-12-04T01:25:04;99993.91;;;3.88;100.00
31761;BME280;18335;51.486;7.562;2023-12-04T01:27:32;99985.91;;;3.86;100.00
31761;BME280;18335;51.486;7.562;2023-12-04T01:30:00;99984.59;;;3.81;100.00
31761;BME280;18335;51.486;7.562;2023-12-04T01:32:27;99976.25;;;3.84;100.00
31761;BME280;18335;51.486;7.562;2023-12-04T01:34:54;99978.47;;;3.79;100.00
31761;BME280;18335;51.486;7.562;2023-12-04T01:37:21;99982.25;;;3.87;100.00
31761;BME280;18335;51.486;7.562;2023-12-04T01:39:48;99973.59;;;3.73;100.00
31761;BME280;18335;51.486;7.562;2023-12-04T01:42:15;99970.84;;;3.84;100.00
31761;BME280;18335;51.486;7.562;2023-12-04T01:44:43;99976.97;;;3.86;100.00
31761;BME280;18335;51.486;7.562;2023-12-04T01:47:10;99963.81;;;3.92;100.00
31761;BME280;18335;51.486;7.562;2023-12-04T01:49:37;99971.63;;;3.75;100.00
31761;BME280;18335;51.486;7.562;2023-12-04T01:52:04;99964.16;;;3.99;100.00
31761;BME280;18335;51.486;7.562;2023-12-04T01:54:32;99963.53;;;3.96;100.00
31761;BME280;18335;51.486;7.562;2023-12-04T01:56:59;99954.66;;;4.05;100.00
31761;BME280;18335;51.486;7.562;2023-12-04T01:59:26;99959.06;;;3.85;100.00
31761;BME280;18335;51.486;7.562;2023-12-04T02:01:54;99949.13;;;4.06;100.00
31761;BME280;18335;51.486;7.562;2023-12-04T02:04:21;99944.28;;;4.00;100.00
31761;BME280;18335;51.486;7.562;2023-12-04T02:06:48;99948.41;;;4.04;100.00
31761;BME280;18335;51.486;7.562;2023-12-04T02:09:15;99945.50;;;3.96;100.00
31761;BME280;18335;51.486;7.562;2023-12-04T02:11:41;99936.38;;;3.87;100.00
31761;BME280;18335;51.486;7.562;2023-12-04T02:14:08;99935.94;;;3.92;100.00
31761;BME280;18335;51.486;7.562;2023-12-04T02:16:38;99939.69;;;4.01;100.00
31761;BME280;18335;51.486;7.562;2023-12-04T02:19:07;99942.47;;;3.89;100.00
31761;BME280;18335;51.486;7.562;2023-12-04T02:21:34;99942.06;;;3.73;100.00
31761;BME280;18335;51.486;7.562;2023-12-04T02:24:02;99943.94;;;3.62;100.00
31761;BME280;18335;51.486;7.562;2023-12-04T02:26:33;99946.09;;;3.79;100.00
31761;BME280;18335;51.486;7.562;2023-12-04T02:29:09;99942.81;;;3.75;100.00
31761;BME280;18335;51.486;7.562;2023-12-04T02:31:39;99937.25;;;3.77;100.00
31761;BME280;18335;51.486;7.562;2023-12-04T02:34:08;99933.25;;;3.92;100.00
31761;BME280;18335;51.486;7.562;2023-12-04T02:36:36;99930.38;;;3.84;100.00
31761;BME280;18335;51.486;7.562;2023-12-04T02:39:06;99932.66;;;4.09;100.00
31761;BME280;18335;51.486;7.562;2023-12-04T02:41:33;99926.34;;;3.99;100.00
31761;BME280;18335;51.486;7.562;2023-12-04T02:44:00;99929.50;;;4.04;100.00
31761;BME280;18335;51.486;7.562;2023-12-04T02:46:27;99919.41;;;3.85;100.00
31761;BME280;18335;51.486;7.562;2023-12-04T02:48:53;99915.56;;;3.99;100.00
31761;BME280;18335;51.486;7.562;2023-12-04T02:51:20;99919.50;;;3.95;100.00
31761;BME280;18335;51.486;7.562;2023-12-04T02:53:47;99916.34;;;3.90;100.00
31761;BME280;18335;51.486;7.562;2023-12-04T02:56:15;99910.53;;;3.95;100.00
31761;BME280;18335;51.486;7.562;2023-12-04T02:58:41;99906.66;;;4.08;100.00
31761;BME280;18335;51.486;7.562;2023-12-04T03:01:08;99905.81;;;3.87;100.00
31761;BME280;18335;51.486;7.562;2023-12-04T03:03:35;99905.63;;;3.79;100.00
31761;BME280;18335;51.486;7.562;2023-12-04T03:06:01;99900.50;;;3.76;100.00
31761;BME280;18335;51.486;7.562;2023-12-04T03:08:28;99895.88;;;3.87;100.00
31761;BME280;18335;51.486;7.562;2023-12-04T03:10:55;99905.03;;;3.96;100.00
31761;BME280;18335;51.486;7.562;2023-12-04T03:13:23;99890.56;;;3.97;100.00
31761;BME280;18335;51.486;7.562;2023-12-04T03:15:50;99886.41;;;3.93;100.00
31761;BME280;18335;51.486;7.562;2023-12-04T03:18:16;99891.59;;;3.85;100.00
31761;BME280;18335;51.486;7.562;2023-12-04T03:20:43;99891.34;;;4.09;100.00
31761;BME280;18335;51.486;7.562;2023-12-04T03:23:10;99887.84;;;3.97;100.00
31761;BME280;18335;51.486;7.562;2023-12-04T03:25:36;99878.31;;;3.93;100.00
31761;BME280;18335;51.486;7.562;2023-12-04T03:28:03;99868.72;;;4.10;100.00
31761;BME280;18335;51.486;7.562;2023-12-04T03:30:31;99869.94;;;3.75;100.00
31761;BME280;18335;51.486;7.562;2023-12-04T03:32:58;99869.66;;;3.99;100.00
31761;BME280;18335;51.486;7.562;2023-12-04T03:35:26;99864.66;;;3.95;100.00
31761;BME280;18335;51.486;7.562;2023-12-04T03:37:53;99860.53;;;3.90;100.00
31761;BME280;18335;51.486;7.562;2023-12-04T03:40:20;99851.56;;;3.90;100.00
31761;BME280;18335;51.486;7.562;2023-12-04T03:42:47;99845.38;;;3.99;100.00
31761;BME280;18335;51.486;7.562;2023-12-04T03:45:14;99843.91;;;3.95;100.00
31761;BME280;18335;51.486;7.562;2023-12-04T03:47:42;99841.69;;;4.00;100.00
31761;BME280;18335;51.486;7.562;2023-12-04T03:50:09;99843.56;;;4.09;100.00
31761;BME280;18335;51.486;7.562;2023-12-04T03:52:36;99846.34;;;3.98;100.00
31761;BME280;18335;51.486;7.562;2023-12-04T03:55:03;99837.72;;;4.04;100.00
31761;BME280;18335;51.486;7.562;2023-12-04T03:57:30;99833.59;;;3.79;100.00
31761;BME280;18335;51.486;7.562;2023-12-04T03:59:57;99830.63;;;4.03;100.00
31761;BME280;18335;51.486;7.562;2023-12-04T04:02:23;99831.66;;;4.12;100.00
31761;BME280;18335;51.486;7.562;2023-12-04T04:04:51;99829.41;;;4.17;100.00
31761;BME280;18335;51.486;7.562;2023-12-04T04:07:19;99832.69;;;4.20;100.00
31761;BME280;18335;51.486;7.562;2023-12-04T04:09:46;99828.38;;;4.08;100.00
31761;BME280;18335;51.486;7.562;2023-12-04T04:12:12;99826.44;;;4.20;100.00
31761;BME280;18335;51.486;7.562;2023-12-04T04:14:39;99827.69;;;4.16;100.00
31761;BME280;18335;51.486;7.562;2023-12-04T04:17:06;99824.72;;;4.19;100.00
31761;BME280;18335;51.486;7.562;2023-12-04T04:19:33;99825.31;;;4.22;100.00
31761;BME280;18335;51.486;7.562;2023-12-04T04:22:01;99830.06;;;4.39;100.00
31761;BME280;18335;51.486;7.562;2023-12-04T04:24:28;99821.19;;;4.28;100.00
31761;BME280;18335;51.486;7.562;2023-12-04T04:26:55;99826.34;;;4.31;100.00
31761;BME280;18335;51.486;7.562;2023-12-04T04:29:22;99836.81;;;4.15;100.00
31761;BME280;18335;51.486;7.562;2023-12-04T04:31:48;99826.06;;;4.34;100.00
31761;BME280;18335;51.486;7.562;2023-12-04T04:34:15;99815.31;;;4.13;100.00
31761;BME280;18335;51.486;7.562;2023-12-04T04:36:42;99812.78;;;4.21;100.00
31761;BME280;18335;51.486;7.562;2023-12-04T04:39:11;99816.13;;;4.04;100.00
31761;BME280;18335;51.486;7.562;2023-12-04T04:41:38;99816.66;;;3.98;100.00
31761;BME280;18335;51.486;7.562;2023-12-04T04:44:05;99809.69;;;3.96;100.00
31761;BME280;18335;51.486;7.562;2023-12-04T04:46:32;99804.19;;;3.97;100.00
31761;BME280;18335;51.486;7.562;2023-12-04T04:48:58;99797.00;;;3.86;100.00
31761;BME280;18335;51.486;7.562;2023-12-04T04:51:25;99803.09;;;3.79;100.00
31761;BME280;18335;51.486;7.562;2023-12-04T04:53:52;99790.22;;;3.92;100.00
31761;BME280;18335;51.486;7.562;2023-12-04T04:56:20;99796.41;;;3.83;100.00
31761;BME280;18335;51.486;7.562;2023-12-04T04:58:47;99793.97;;;3.80;100.00
31761;BME280;18335;51.486;7.562;2023-12-04T05:01:14;99796.94;;;3.77;100.00
31761;BME280;18335;51.486;7.562;2023-12-04T05:03:41;99798.34;;;3.71;100.00
31761;BME280;18335;51.486;7.562;2023-12-04T05:06:08;99801.81;;;3.83;100.00
31761;BME280;18335;51.486;7.562;2023-12-04T05:08:35;99790.22;;;3.92;100.00
31761;BME280;18335;51.486;7.562;2023-12-04T05:11:02;99786.91;;;3.79;100.00
31761;BME280;18335;51.486;7.562;2023-12-04T05:13:31;99779.03;;;3.97;100.00
31761;BME280;18335;51.486;7.562;2023-12-04T05:15:57;99785.88;;;3.80;100.00
31761;BME280;18335;51.486;7.562;2023-12-04T05:18:25;99787.59;;;3.81;100.00
31761;BME280;18335;51.486;7.562;2023-12-04T05:20:52;99772.06;;;4.04;100.00
31761;BME280;18335;51.486;7.562;2023-12-04T05:23:18;99772.00;;;3.84;100.00
31761;BME280;18335;51.486;7.562;2023-12-04T05:25:45;99770.06;;;3.96;100.00
31761;BME280;18335;51.486;7.562;2023-12-04T05:28:12;99771.25;;;3.82;100.00
31761;BME280;18335;51.486;7.562;2023-12-04T05:30:40;99767.47;;;3.85;100.00
31761;BME280;18335;51.486;7.562;2023-12-04T05:33:06;99761.81;;;3.88;100.00
31761;BME280;18335;51.486;7.562;2023-12-04T05:35:33;99763.41;;;4.00;100.00
31761;BME280;18335;51.486;7.562;2023-12-04T05:38:00;99759.00;;;3.99;100.00
31761;BME280;18335;51.486;7.562;2023-12-04T05:40:27;99758.84;;;3.91;100.00
31761;BME280;18335;51.486;7.562;2023-12-04T05:42:53;99748.03;;;3.91;100.00
31761;BME280;18335;51.486;7.562;2023-12-04T05:45:20;99746.31;;;3.90;100.00
31761;BME280;18335;51.486;7.562;2023-12-04T05:47:48;99743.63;;;3.90;100.00
31761;BME280;18335;51.486;7.562;2023-12-04T05:50:15;99731.91;;;4.10;100.00
31761;BME280;18335;51.486;7.562;2023-12-04T05:52:41;99736.44;;;4.00;100.00
31761;BME280;18335;51.486;7.562;2023-12-04T05:55:09;99730.56;;;3.95;100.00
31761;BME280;18335;51.486;7.562;2023-12-04T05:57:39;99724.13;;;3.86;100.00
31761;BME280;18335;51.486;7.562;2023-12-04T06:00:06;99727.59;;;3.98;100.00
31761;BME280;18335;51.486;7.562;2023-12-04T06:02:38;99721.25;;;4.18;100.00
31761;BME280;18335;51.486;7.562;2023-12-04T06:05:07;99727.69;;;3.87;100.00
31761;BME280;18335;51.486;7.562;2023-12-04T06:07:34;99719.88;;;3.84;100.00
31761;BME280;18335;51.486;7.562;2023-12-04T06:10:01;99727.59;;;3.98;100.00
31761;BME280;18335;51.486;7.562;2023-12-04T06:12:29;99723.91;;;3.99;100.00
31761;BME280;18335;51.486;7.562;2023-12-04T06:14:56;99729.47;;;4.07;100.00
31761;BME280;18335;51.486;7.562;2023-12-04T06:17:23;99734.00;;;3.97;100.00
31761;BME280;18335;51.486;7.562;2023-12-04T06:19:50;99743.69;;;4.09;100.00
31761;BME280;18335;51.486;7.562;2023-12-04T06:22:19;99748.81;;;4.12;100.00
31761;BME280;18335;51.486;7.562;2023-12-04T06:24:47;99744.56;;;4.19;100.00
31761;BME280;18335;51.486;7.562;2023-12-04T06:27:15;99742.63;;;4.31;100.00
31761;BME280;18335;51.486;7.562;2023-12-04T06:29:43;99743.81;;;4.47;100.00
31761;BME280;18335;51.486;7.562;2023-12-04T06:32:12;99737.56;;;4.57;100.00
31761;BME280;18335;51.486;7.562;2023-12-04T06:34:39;99739.94;;;4.40;100.00
31761;BME280;18335;51.486;7.562;2023-12-04T06:37:09;99735.44;;;4.79;100.00
31761;BME280;18335;51.486;7.562;2023-12-04T06:39:38;99730.63;;;4.83;100.00
31761;BME280;18335;51.486;7.562;2023-12-04T06:42:07;99724.50;;;4.71;97.37
31761;BME280;18335;51.486;7.562;2023-12-04T06:44:34;99723.63;;;4.61;100.00
31761;BME280;18335;51.486;7.562;2023-12-04T06:47:02;99730.16;;;4.59;98.77
31761;BME280;18335;51.486;7.562;2023-12-04T06:49:30;99709.84;;;4.74;97.77
31761;BME280;18335;51.486;7.562;2023-12-04T06:51:58;99707.38;;;4.32;96.12
31761;BME280;18335;51.486;7.562;2023-12-04T06:54:25;99696.81;;;4.10;95.65
31761;BME280;18335;51.486;7.562;2023-12-04T06:56:53;99687.19;;;4.27;95.58
31761;BME280;18335;51.486;7.562;2023-12-04T06:59:20;99683.50;;;4.37;92.18
31761;BME280;18335;51.486;7.562;2023-12-04T07:01:47;99683.66;;;4.45;92.17
31761;BME280;18335;51.486;7.562;2023-12-04T07:04:14;99681.50;;;4.20;95.42
31761;BME280;18335;51.486;7.562;2023-12-04T07:06:46;99678.81;;;4.39;87.91
31761;BME280;18335;51.486;7.562;2023-12-04T07:09:13;99668.44;;;4.54;89.74
31761;BME280;18335;51.486;7.562;2023-12-04T07:11:40;99672.41;;;4.40;90.19
31761;BME280;18335;51.486;7.562;2023-12-04T07:14:09;99660.06;;;4.47;86.74
31761;BME280;18335;51.486;7.562;2023-12-04T07:16:39;99660.78;;;4.50;83.25
31761;BME280;18335;51.486;7.562;2023-12-04T07:19:06;99659.63;;;4.52;83.88
31761;BME280;18335;51.486;7.562;2023-12-04T07:21:33;99652.53;;;4.61;82.66
31761;BME280;18335;51.486;7.562;2023-12-04T07:23:59;99653.50;;;4.40;80.85
31761;BME280;18335;51.486;7.562;2023-12-04T07:26:26;99643.44;;;4.52;78.55
31761;BME280;18335;51.486;7.562;2023-12-04T07:28:53;99651.38;;;4.63;78.86
31761;BME280;18335;51.486;7.562;2023-12-04T07:31:21;99641.44;;;4.44;84.66
31761;BME280;18335;51.486;7.562;2023-12-04T07:33:48;99647.69;;;4.55;84.88
31761;BME280;18335;51.486;7.562;2023-12-04T07:36:15;99630.91;;;4.41;79.93
31761;BME280;18335;51.486;7.562;2023-12-04T07:38:41;99631.22;;;4.38;78.71
31761;BME280;18335;51.486;7.562;2023-12-04T07:41:08;99631.91;;;4.69;77.93
31761;BME280;18335;51.486;7.562;2023-12-04T07:43:35;99627.50;;;4.39;80.81
31761;BME280;18335;51.486;7.562;2023-12-04T07:46:02;99621.53;;;4.36;80.14
31761;BME280;18335;51.486;7.562;2023-12-04T07:48:30;99622.66;;;4.33;85.06
31761;BME280;18335;51.486;7.562;2023-12-04T07:50:57;99618.25;;;4.52;87.49
31761;BME280;18335;51.486;7.562;2023-12-04T07:53:24;99613.56;;;4.25;85.93
31761;BME280;18335;51.486;7.562;2023-12-04T07:55:50;99619.41;;;4.30;81.70
31761;BME280;18335;51.486;7.562;2023-12-04T07:58:17;99609.59;;;4.38;86.30
31761;BME280;18335;51.486;7.562;2023-12-04T08:00:44;99609.72;;;4.27;87.88
31761;BME280;18335;51.486;7.562;2023-12-04T08:03:10;99617.41;;;4.41;85.01
31761;BME280;18335;51.486;7.562;2023-12-04T08:05:39;99594.38;;;4.37;84.85
31761;BME280;18335;51.486;7.562;2023-12-04T08:08:06;99600.63;;;4.28;85.37
31761;BME280;18335;51.486;7.562;2023-12-04T08:10:33;99598.22;;;4.44;81.72
31761;BME280;18335;51.486;7.562;2023-12-04T08:12:59;99601.63;;;4.27;88.26
31761;BME280;18335;51.486;7.562;2023-12-04T08:15:26;99597.50;;;4.52;89.34
31761;BME280;18335;51.486;7.562;2023-12-04T08:17:53;99603.59;;;4.73;85.80
31761;BME280;18335;51.486;7.562;2023-12-04T08:20:21;99591.94;;;4.63;82.73
31761;BME280;18335;51.486;7.562;2023-12-04T08:22:50;99592.22;;;4.60;80.53
31761;BME280;18335;51.486;7.562;2023-12-04T08:25:17;99588.56;;;4.42;82.97
31761;BME280;18335;51.486;7.562;2023-12-04T08:27:44;99583.69;;;4.45;88.80
31761;BME280;18335;51.486;7.562;2023-12-04T08:30:11;99580.44;;;4.52;84.69
31761;BME280;18335;51.486;7.562;2023-12-04T08:32:38;99572.91;;;4.45;84.96
31761;BME280;18335;51.486;7.562;2023-12-04T08:35:06;99567.50;;;4.45;89.92
31761;BME280;18335;51.486;7.562;2023-12-04T08:37:32;99571.75;;;4.48;88.79
31761;BME280;18335;51.486;7.562;2023-12-04T08:40:00;99567.09;;;4.40;87.23
31761;BME280;18335;51.486;7.562;2023-12-04T08:42:28;99567.50;;;4.45;86.76
31761;BME280;18335;51.486;7.562;2023-12-04T08:44:55;99570.66;;;4.51;88.05
31761;BME280;18335;51.486;7.562;2023-12-04T08:47:21;99576.34;;;4.47;91.76
31761;BME280;18335;51.486;7.562;2023-12-04T08:49:48;99582.28;;;4.61;80.95
31761;BME280;18335;51.486;7.562;2023-12-04T08:52:15;99578.78;;;4.97;87.09
31761;BME280;18335;51.486;7.562;2023-12-04T08:54:42;99578.97;;;4.86;82.44
31761;BME280;18335;51.486;7.562;2023-12-04T08:57:10;99581.22;;;4.90;84.34
31761;BME280;18335;51.486;7.562;2023-12-04T08:59:37;99581.97;;;4.83;85.44
31761;BME280;18335;51.486;7.562;2023-12-04T09:02:04;99573.69;;;4.94;80.42
31761;BME280;18335;51.486;7.562;2023-12-04T09:04:30;99573.69;;;4.94;79.09
31761;BME280;18335;51.486;7.562;2023-12-04T09:06:57;99581.41;;;4.79;82.68
31761;BME280;18335;51.486;7.562;2023-12-04T09:09:24;99568.81;;;5.07;77.75
31761;BME280;18335;51.486;7.562;2023-12-04T09:11:50;99577.81;;;4.88;79.33
31761;BME280;18335;51.486;7.562;2023-12-04T09:14:18;99573.50;;;5.05;80.78
31761;BME280;18335;51.486;7.562;2023-12-04T09:16:45;99564.00;;;5.01;78.68
31761;BME280;18335;51.486;7.562;2023-12-04T09:19:12;99562.16;;;5.29;77.00
31761;BME280;18335;51.486;7.562;2023-12-04T09:21:39;99557.81;;;5.18;72.81
31761;BME280;18335;51.486;7.562;2023-12-04T09:24:06;99558.59;;;5.01;80.77
31761;BME280;18335;51.486;7.562;2023-12-04T09:26:32;99555.22;;;5.26;77.25
31761;BME280;18335;51.486;7.562;2023-12-04T09:28:59;99557.66;;;5.20;74.26
31761;BME280;18335;51.486;7.562;2023-12-04T09:31:27;99548.47;;;5.03;77.20
31761;BME280;18335;51.486;7.562;2023-12-04T09:33:54;99560.78;;;5.25;77.80
31761;BME280;18335;51.486;7.562;2023-12-04T09:36:20;99547.16;;;5.17;79.56
31761;BME280;18335;51.486;7.562;2023-12-04T09:38:47;99549.84;;;5.44;77.73
31761;BME280;18335;51.486;7.562;2023-12-04T09:41:15;99542.63;;;5.35;75.74
31761;BME280;18335;51.486;7.562;2023-12-04T09:43:44;99545.78;;;5.40;80.61
31761;BME280;18335;51.486;7.562;2023-12-04T09:46:11;99541.69;;;5.53;80.77
31761;BME280;18335;51.486;7.562;2023-12-04T09:48:40;99538.59;;;5.48;79.36
31761;BME280;18335;51.486;7.562;2023-12-04T09:51:09;99532.59;;;5.54;78.59
31761;BME280;18335;51.486;7.562;2023-12-04T09:53:37;99522.97;;;5.42;77.63
31761;BME280;18335;51.486;7.562;2023-12-04T09:56:07;99527.78;;;5.48;81.66
31761;BME280;18335;51.486;7.562;2023-12-04T09:58:39;99515.47;;;5.36;82.36
31761;BME280;18335;51.486;7.562;2023-12-04T10:01:06;99508.53;;;5.51;78.32
31761;BME280;18335;51.486;7.562;2023-12-04T10:03:34;99507.44;;;5.44;84.60
31761;BME280;18335;51.486;7.562;2023-12-04T10:06:03;99502.59;;;5.66;82.29
31761;BME280;18335;51.486;7.562;2023-12-04T10:08:31;99498.38;;;5.36;86.31
31761;BME280;18335;51.486;7.562;2023-12-04T10:10:57;99504.16;;;5.41;86.33
31761;BME280;18335;51.486;7.562;2023-12-04T10:13:25;99493.59;;;5.20;91.55
31761;BME280;18335;51.486;7.562;2023-12-04T10:15:51;99492.56;;;5.31;91.18
31761;BME280;18335;51.486;7.562;2023-12-04T10:18:24;99492.66;;;5.39;92.65
31761;BME280;18335;51.486;7.562;2023-12-04T10:20:52;99482.69;;;5.39;94.42
31761;BME280;18335;51.486;7.562;2023-12-04T10:23:20;99483.59;;;5.30;90.53
31761;BME280;18335;51.486;7.562;2023-12-04T10:25:49;99481.72;;;5.58;90.47
31761;BME280;18335;51.486;7.562;2023-12-04T10:28:17;99479.84;;;5.86;94.07
31761;BME280;18335;51.486;7.562;2023-12-04T10:30:45;99464.19;;;5.80;87.19
31761;BME280;18335;51.486;7.562;2023-12-04T10:33:12;99471.03;;;5.56;91.79
31761;BME280;18335;51.486;7.562;2023-12-04T10:35:40;99461.72;;;5.69;88.47
31761;BME280;18335;51.486;7.562;2023-12-04T10:38:08;99454.88;;;5.47;94.20
31761;BME280;18335;51.486;7.562;2023-12-04T10:40:37;99448.97;;;5.96;86.05
31761;BME280;18335;51.486;7.562;2023-12-04T10:43:11;99455.03;;;5.45;91.00
31761;BME280;18335;51.486;7.562;2023-12-04T10:45:37;99460.16;;;5.48;89.89
31761;BME280;18335;51.486;7.562;2023-12-04T10:48:04;99446.13;;;5.53;90.83
31761;BME280;18335;51.486;7.562;2023-12-04T10:50:31;99445.16;;;5.54;88.41
31761;BME280;18335;51.486;7.562;2023-12-04T10:53:00;99451.84;;;5.50;94.27
31761;BME280;18335;51.486;7.562;2023-12-04T10:55:27;99444.78;;;5.67;91.05
31761;BME280;18335;51.486;7.562;2023-12-04T10:57:55;99444.06;;;5.65;93.26
31761;BME280;18335;51.486;7.562;2023-12-04T11:00:22;99430.00;;;5.43;94.03
31761;BME280;18335;51.486;7.562;2023-12-04T11:02:50;99437.94;;;5.45;93.01
31761;BME280;18335;51.486;7.562;2023-12-04T11:05:21;99429.59;;;5.74;90.62
31761;BME280;18335;51.486;7.562;2023-12-04T11:07:51;99422.31;;;5.39;96.34
31761;BME280;18335;51.486;7.562;2023-12-04T11:10:21;99414.47;;;5.63;97.20
31761;BME280;18335;51.486;7.562;2023-12-04T11:12:51;99406.94;;;5.39;99.86
31761;BME280;18335;51.486;7.562;2023-12-04T11:15:23;99405.66;;;5.61;97.68
31761;BME280;18335;51.486;7.562;2023-12-04T11:17:54;99406.59;;;5.70;100.00
31761;BME280;18335;51.486;7.562;2023-12-04T11:20:27;99394.03;;;5.51;100.00
31761;BME280;18335;51.486;7.562;2023-12-04T11:22:55;99395.75;;;5.52;100.00
31761;BME280;18335;51.486;7.562;2023-12-04T11:25:23;99384.00;;;5.79;99.83
31761;BME280;18335;51.486;7.562;2023-12-04T11:27:50;99394.44;;;5.56;100.00
31761;BME280;18335;51.486;7.562;2023-12-04T11:30:18;99378.06;;;5.57;100.00
31761;BME280;18335;51.486;7.562;2023-12-04T11:32:48;99379.72;;;5.58;100.00
31761;BME280;18335;51.486;7.562;2023-12-04T11:35:17;99370.69;;;5.50;100.00
31761;BME280;18335;51.486;7.562;2023-12-04T11:37:46;99377.50;;;5.72;100.00
31761;BME280;18335;51.486;7.562;2023-12-04T11:40:15;99378.06;;;5.57;100.00
31761;BME280;18335;51.486;7.562;2023-12-04T11:42:42;99379.66;;;5.50;100.00
31761;BME280;18335;51.486;7.562;2023-12-04T11:45:09;99379.13;;;5.47;100.00
31761;BME280;18335;51.486;7.562;2023-12-04T11:47:50;99368.53;;;5.53;100.00
31761;BME280;18335;51.486;7.562;2023-12-04T11:50:18;99373.69;;;5.65;100.00
31761;BME280;18335;51.486;7.562;2023-12-04T11:52:45;99361.88;;;5.30;100.00
31761;BME280;18335;51.486;7.562;2023-12-04T11:55:16;99365.69;;;5.37;100.00
31761;BME280;18335;51.486;7.562;2023-12-04T11:57:43;99373.25;;;5.16;100.00
31761;BME280;18335;51.486;7.562;2023-12-04T12:00:13;99359.50;;;5.27;100.00
31761;BME280;18335;51.486;7.562;2023-12-04T12:03:01;99360.28;;;5.37;100.00
31761;BME280;18335;51.486;7.562;2023-12-04T12:05:32;99356.78;;;5.45;100.00
31761;BME280;18335;51.486;7.562;2023-12-04T12:08:00;99352.16;;;5.55;100.00
31761;BME280;18335;51.486;7.562;2023-12-04T12:10:27;99347.91;;;5.52;100.00
31761;BME280;18335;51.486;7.562;2023-12-04T12:12:55;99357.25;;;5.76;100.00
31761;BME280;18335;51.486;7.562;2023-12-04T12:15:22;99353.78;;;5.30;100.00
31761;BME280;18335;51.486;7.562;2023-12-04T12:17:50;99354.41;;;5.42;100.00
31761;BME280;18335;51.486;7.562;2023-12-04T12:20:18;99351.31;;;5.54;100.00
31761;BME280;18335;51.486;7.562;2023-12-04T12:22:47;99341.78;;;5.50;100.00
31761;BME280;18335;51.486;7.562;2023-12-04T12:25:15;99349.66;;;5.44;100.00
31761;BME280;18335;51.486;7.562;2023-12-04T12:27:41;99338.63;;;5.37;100.00
31761;BME280;18335;51.486;7.562;2023-12-04T12:30:09;99346.13;;;5.43;100.00
31761;BME280;18335;51.486;7.562;2023-12-04T12:32:36;99341.47;;;5.71;100.00
31761;BME280;18335;51.486;7.562;2023-12-04T12:35:05;99339.13;;;5.58;100.00
31761;BME280;18335;51.486;7.562;2023-12-04T12:37:33;99340.31;;;5.38;100.00
31761;BME280;18335;51.486;7.562;2023-12-04T12:40:01;99333.03;;;5.56;100.00
31761;BME280;18335;51.486;7.562;2023-12-04T12:42:30;99327.59;;;5.74;100.00
31761;BME280;18335;51.486;7.562;2023-12-04T12:45:00;99317.41;;;5.86;100.00
31761;BME280;18335;51.486;7.562;2023-12-04T12:47:29;99316.09;;;5.72;100.00
31761;BME280;18335;51.486;7.562;2023-12-04T12:49:55;99316.97;;;5.73;100.00
31761;BME280;18335;51.486;7.562;2023-12-04T12:52:25;99313.97;;;5.84;100.00
31761;BME280;18335;51.486;7.562;2023-12-04T12:54:52;99300.19;;;5.69;100.00
31761;BME280;18335;51.486;7.562;2023-12-04T12:57:19;99296.50;;;5.96;100.00
31761;BME280;18335;51.486;7.562;2023-12-04T12:59:46;99295.66;;;5.95;100.00
31761;BME280;18335;51.486;7.562;2023-12-04T13:02:13;99291.16;;;5.61;100.00
31761;BME280;18335;51.486;7.562;2023-12-04T13:04:41;99288.88;;;5.74;100.00